Terminal Aerodrome Forecast
Issued by NWS

Home | Current Version | Previous Version | Text Only | Print | Product List | Glossary On
Versions: 1 2 3 4 5 6 7 8 9 10 11 12 13 14 15 16 17 18 19 20
000
FTUS44 KMAF 072328
TAFCNM
TAF
KCNM 072328Z 0800/0824 35007KT P6SM OVC100
     FM080300 08010KT P6SM OVC025
     FM080500 04015G25KT P6SM OVC030
      TEMPO 0812/0816 4SM -SN BR
     FM081600 05011KT P6SM OVC035=

USA.gov is the U.S. government's official web portal to all federal, state and local government web resources and services.